createdAt,value
2023-03-16T00:00:01.001Z,100195.28
2023-03-16T00:00:32.941Z,100186.69
2023-03-16T00:01:08.312Z,100189.50
2023-03-16T00:01:40.095Z,100189.69
2023-03-16T00:02:13.037Z,100195.66
2023-03-16T00:02:44.964Z,100189.69
2023-03-16T00:03:19.512Z,100186.44
2023-03-16T00:03:51.252Z,100197.03
2023-03-16T00:04:22.960Z,100192.66
2023-03-16T00:04:55.148Z,100203.31
2023-03-16T00:05:26.860Z,100178.56
2023-03-16T00:05:58.582Z,100186.13
2023-03-16T00:06:30.385Z,100175.44
2023-03-16T00:07:02.328Z,100195.56
2023-03-16T00:07:34.563Z,100188.94
2023-03-16T00:08:06.343Z,100190.69
2023-03-16T00:08:39.259Z,100193.97
2023-03-16T00:09:11.178Z,100193.69
2023-03-16T00:09:43.040Z,100192.75
2023-03-16T00:10:14.906Z,100193.97
2023-03-16T00:10:47.489Z,100196.03
2023-03-16T00:11:19.861Z,100195.09
2023-03-16T00:11:51.571Z,100182.75
2023-03-16T00:12:23.318Z,100170.13
2023-03-16T00:12:56.819Z,100195.56
2023-03-16T00:13:29.632Z,100186.31
2023-03-16T00:14:04.297Z,100190.59
2023-03-16T00:14:36.154Z,100178.75
2023-03-16T00:15:08.144Z,100196.41
2023-03-16T00:15:39.807Z,100200.78
2023-03-16T00:16:17.189Z,100195.66
2023-03-16T00:16:49.064Z,100198.44
2023-03-16T00:17:21.446Z,100203.31
2023-03-16T00:17:53.145Z,100210.22
2023-03-16T00:18:27.848Z,100199.38
2023-03-16T00:18:59.651Z,100205.91
2023-03-16T00:19:35.311Z,100208.34
2023-03-16T00:20:07.690Z,100205.16
2023-03-16T00:20:39.394Z,100212.66
2023-03-16T00:21:14.829Z,100205.91
2023-03-16T00:22:05.175Z,100202.56
2023-03-16T00:22:37.098Z,100204.34
2023-03-16T00:23:08.786Z,100193.31
2023-03-16T00:23:40.536Z,100202.66
2023-03-16T00:24:12.982Z,100217.50
2023-03-16T00:24:44.722Z,100207.13
2023-03-16T00:25:17.396Z,100221.06
2023-03-16T00:25:53.900Z,100220.22
2023-03-16T00:26:25.941Z,100226.47
2023-03-16T00:26:57.623Z,100220.31
2023-03-16T00:27:29.399Z,100213.31
2023-03-16T00:28:03.732Z,100220.31
2023-03-16T00:28:36.625Z,100216.84
2023-03-16T00:29:08.304Z,100214.13
2023-03-16T00:29:47.513Z,100209.28
2023-03-16T00:30:19.257Z,100222.78
2023-03-16T00:30:52.272Z,100216.91
2023-03-16T00:31:25.145Z,100219.91
2023-03-16T00:31:56.928Z,100219.16
2023-03-16T00:32:32.268Z,100219.06
2023-03-16T00:33:05.068Z,100221.75
2023-03-16T00:33:36.831Z,100228.00
2023-03-16T00:34:08.542Z,100223.81
2023-03-16T00:34:40.612Z,100232.59
2023-03-16T00:35:12.280Z,100221.56
2023-03-16T00:35:50.414Z,100225.88
2023-03-16T00:36:22.900Z,100213.41
2023-03-16T00:36:55.419Z,100220.13
2023-03-16T00:37:28.806Z,100234.72
2023-03-16T00:38:00.527Z,100238.34
2023-03-16T00:38:35.958Z,100232.44
2023-03-16T00:39:08.276Z,100230.09
2023-03-16T00:39:40.823Z,100232.91
2023-03-16T00:40:12.929Z,100237.28
2023-03-16T00:40:45.421Z,100240.75
2023-03-16T00:41:17.146Z,100229.72
2023-03-16T00:41:48.790Z,100235.69
2023-03-16T00:42:20.564Z,100242.59
2023-03-16T00:42:52.261Z,100241.09
2023-03-16T00:43:27.281Z,100234.16
2023-03-16T00:43:58.994Z,100234.34
2023-03-16T00:44:31.698Z,100229.47
2023-03-16T00:45:05.933Z,100241.63
2023-03-16T00:45:37.910Z,100242.72
2023-03-16T00:46:13.132Z,100231.69
2023-03-16T00:46:44.857Z,100238.59
2023-03-16T00:47:16.557Z,100234.31
2023-03-16T00:47:48.293Z,100246.44
2023-03-16T00:48:21.357Z,100238.69
2023-03-16T00:48:53.155Z,100224.94
2023-03-16T00:49:24.874Z,100239.28
2023-03-16T00:49:57.463Z,100247.00
2023-03-16T00:50:29.685Z,100241.88
2023-03-16T00:51:07.122Z,100245.50
2023-03-16T00:51:38.807Z,100239.53
2023-03-16T00:52:15.609Z,100234.31
2023-03-16T00:52:47.275Z,100242.06
2023-03-16T00:53:18.973Z,100243.66
2023-03-16T00:53:50.716Z,100233.69
2023-03-16T00:54:22.510Z,100240.19
2023-03-16T00:54:56.032Z,100240.28
2023-03-16T00:55:28.717Z,100240.44
2023-03-16T00:56:04.453Z,100240.44
2023-03-16T00:56:36.212Z,100248.44
2023-03-16T00:57:07.939Z,100240.78
2023-03-16T00:57:39.682Z,100244.75
2023-03-16T00:58:14.965Z,100243.13
2023-03-16T00:58:46.753Z,100243.97
2023-03-16T00:59:20.256Z,100252.66
2023-03-16T00:59:52.677Z,100240.59
2023-03-16T01:00:28.611Z,100238.84
2023-03-16T01:01:02.216Z,100246.59
2023-03-16T01:01:34.102Z,100246.59
2023-03-16T01:02:08.107Z,100235.06
2023-03-16T01:02:39.787Z,100235.56
2023-03-16T01:03:11.585Z,100242.47
2023-03-16T01:03:43.978Z,100237.59
2023-03-16T01:04:15.689Z,100242.47
2023-03-16T01:04:47.412Z,100252.34
2023-03-16T01:05:19.491Z,100254.19
2023-03-16T01:05:51.186Z,100245.53
2023-03-16T01:06:22.997Z,100236.28
2023-03-16T01:06:55.462Z,100244.84
2023-03-16T01:07:27.141Z,100250.66
2023-03-16T01:07:59.983Z,100241.13
2023-03-16T01:08:33.182Z,100251.50
2023-03-16T01:09:05.790Z,100233.47
2023-03-16T01:09:37.503Z,100241.91
2023-03-16T01:10:10.143Z,100251.50
2023-03-16T01:10:41.862Z,100238.88
2023-03-16T01:11:19.394Z,100246.53
2023-03-16T01:11:54.032Z,100240.31
2023-03-16T01:12:25.728Z,100245.78
2023-03-16T01:12:57.405Z,100239.88
2023-03-16T01:13:30.189Z,100235.16
2023-03-16T01:14:01.906Z,100232.47
2023-03-16T01:14:35.022Z,100233.97
2023-03-16T01:15:07.364Z,100241.06
2023-03-16T01:15:39.608Z,100242.81
2023-03-16T01:16:11.404Z,100242.91
2023-03-16T01:16:45.957Z,100237.59
2023-03-16T01:17:18.540Z,100240.72
2023-03-16T01:17:50.215Z,100231.94
2023-03-16T01:18:22.476Z,100216.06
2023-03-16T01:18:54.436Z,100241.31
2023-03-16T01:19:26.095Z,100235.75
2023-03-16T01:19:57.957Z,100233.75
2023-03-16T01:20:29.923Z,100251.50
2023-03-16T01:21:09.029Z,100249.56
2023-03-16T01:21:42.633Z,100239.19
2023-03-16T01:22:15.437Z,100243.84
2023-03-16T01:22:47.191Z,100232.47
2023-03-16T01:23:19.992Z,100238.44
2023-03-16T01:23:53.884Z,100252.06
2023-03-16T01:24:25.553Z,100255.56
2023-03-16T01:24:57.300Z,100250.09
2023-03-16T01:25:29.016Z,100248.31
2023-03-16T01:26:02.199Z,100244.84
2023-03-16T01:26:33.973Z,100238.97
2023-03-16T01:27:05.832Z,100244.78
2023-03-16T01:27:38.004Z,100242.50
2023-03-16T01:28:09.979Z,100250.09
2023-03-16T01:28:41.691Z,100243.56
2023-03-16T01:29:13.350Z,100250.41
2023-03-16T01:29:45.561Z,100253.84
2023-03-16T01:30:17.342Z,100253.19
2023-03-16T01:30:49.282Z,100250.16
2023-03-16T01:31:21.157Z,100250.34
2023-03-16T01:31:52.945Z,100255.56
2023-03-16T01:32:24.637Z,100249.56
2023-03-16T01:32:56.333Z,100252.94
2023-03-16T01:33:28.991Z,100258.00
2023-03-16T01:34:04.096Z,100252.16
2023-03-16T01:34:35.978Z,100255.63
2023-03-16T01:35:08.215Z,100250.75
2023-03-16T01:35:40.148Z,100246.53
2023-03-16T01:36:14.283Z,100249.91
2023-03-16T01:36:50.530Z,100232.63
2023-03-16T01:37:22.767Z,100250.34
2023-03-16T01:37:54.445Z,100247.47
2023-03-16T01:38:26.917Z,100244.84
2023-03-16T01:39:00.124Z,100233.88
2023-03-16T01:39:31.887Z,100257.81
2023-03-16T01:40:06.535Z,100246.84
2023-03-16T01:40:38.268Z,100249.16
2023-03-16T01:41:10.363Z,100241.31
2023-03-16T01:41:43.528Z,100239.19
2023-03-16T01:42:15.371Z,100232.47
2023-03-16T01:42:49.498Z,100242.75
2023-03-16T01:43:24.184Z,100247.88
2023-03-16T01:43:58.564Z,100244.34
2023-03-16T01:44:49.652Z,100253.00
2023-03-16T01:46:06.550Z,100244.69
2023-03-16T01:46:38.572Z,100260.00
2023-03-16T01:47:11.180Z,100253.94
2023-03-16T01:47:42.840Z,100253.94
2023-03-16T01:48:14.839Z,100250.75
2023-03-16T01:48:56.657Z,100259.91
2023-03-16T01:49:34.024Z,100261.78
2023-03-16T01:50:07.651Z,100266.25
2023-03-16T01:50:39.496Z,100256.81
2023-03-16T01:51:35.947Z,100264.91
2023-03-16T01:52:21.450Z,100256.41
2023-03-16T01:52:53.242Z,100260.44
2023-03-16T01:53:26.819Z,100265.75
2023-03-16T01:54:07.672Z,100261.09
2023-03-16T01:54:51.167Z,100267.25
2023-03-16T01:55:23.195Z,100262.03
2023-03-16T01:55:55.385Z,100262.28
2023-03-16T01:56:34.714Z,100250.75
2023-03-16T01:57:15.050Z,100260.34
2023-03-16T01:57:47.239Z,100265.91
2023-03-16T01:58:19.065Z,100260.09
2023-03-16T01:58:58.730Z,100263.53
2023-03-16T01:59:47.787Z,100260.69
2023-03-16T02:00:23.771Z,100262.38
2023-03-16T02:00:55.673Z,100252.06
2023-03-16T02:01:28.453Z,100251.41
2023-03-16T02:02:02.584Z,100246.34
2023-03-16T02:02:35.023Z,100255.97
2023-03-16T02:03:15.152Z,100253.59
2023-03-16T02:03:46.888Z,100255.13
2023-03-16T02:04:42.442Z,100257.28
2023-03-16T02:05:23.318Z,100252.25
2023-03-16T02:06:13.026Z,100263.41
2023-03-16T02:06:47.419Z,100255.69
2023-03-16T02:07:22.584Z,100261.75
2023-03-16T02:07:58.783Z,100271.44
2023-03-16T02:08:32.323Z,100264.03
2023-03-16T02:09:06.240Z,100263.88
2023-03-16T02:09:46.376Z,100253.78
2023-03-16T02:10:20.701Z,100250.06
2023-03-16T02:10:56.271Z,100249.41
2023-03-16T02:11:28.772Z,100256.31
2023-03-16T02:12:01.584Z,100260.69
2023-03-16T02:12:33.941Z,100270.19
2023-03-16T02:13:06.497Z,100274.31
2023-03-16T02:13:39.430Z,100270.03
2023-03-16T02:14:12.716Z,100267.59
2023-03-16T02:14:45.760Z,100263.28
2023-03-16T02:15:17.550Z,100257.31
2023-03-16T02:15:49.565Z,100263.19
2023-03-16T02:16:22.649Z,100257.91
2023-03-16T02:16:56.029Z,100261.53
2023-03-16T02:17:31.068Z,100267.50
2023-03-16T02:18:04.431Z,100264.03
2023-03-16T02:18:36.546Z,100263.78
2023-03-16T02:19:14.686Z,100264.53
2023-03-16T02:19:56.781Z,100263.78
2023-03-16T02:20:34.541Z,100274.22
2023-03-16T02:21:09.013Z,100270.94
2023-03-16T02:22:04.006Z,100268.25
2023-03-16T02:22:44.161Z,100267.25
2023-03-16T02:23:19.146Z,100260.34
2023-03-16T02:23:51.547Z,100259.31
2023-03-16T02:24:23.332Z,100269.84
2023-03-16T02:24:55.301Z,100271.63
2023-03-16T02:25:40.046Z,100274.16
2023-03-16T02:26:34.469Z,100264.63
2023-03-16T02:27:12.318Z,100276.75
2023-03-16T02:28:08.712Z,100276.59
2023-03-16T02:28:55.313Z,100272.13
2023-03-16T02:30:02.265Z,100273.84
2023-03-16T02:30:34.796Z,100276.19
2023-03-16T02:31:07.451Z,100269.09
2023-03-16T02:31:40.176Z,100262.22
2023-03-16T02:32:14.780Z,100271.91
2023-03-16T02:32:51.558Z,100266.22
2023-03-16T02:33:24.264Z,100273.88
2023-03-16T02:33:57.404Z,100276.66
2023-03-16T02:34:29.519Z,100282.56
2023-03-16T02:35:02.661Z,100284.28
2023-03-16T02:35:34.642Z,100269.50
2023-03-16T02:36:06.849Z,100273.88
2023-03-16T02:36:41.790Z,100278.19
2023-03-16T02:37:13.764Z,100270.53
2023-03-16T02:37:45.546Z,100282.56
2023-03-16T02:38:17.234Z,100266.22
2023-03-16T02:38:49.063Z,100289.31
2023-03-16T02:39:20.712Z,100282.56
2023-03-16T02:39:52.417Z,100274.06
2023-03-16T02:40:28.536Z,100275.53
2023-03-16T02:41:10.301Z,100268.44
2023-03-16T02:41:42.413Z,100274.41
2023-03-16T02:42:19.392Z,100287.97
2023-03-16T02:43:02.933Z,100285.44
2023-03-16T02:43:38.049Z,100285.44
2023-03-16T02:44:41.902Z,100264.72
2023-03-16T02:45:13.649Z,100267.44
2023-03-16T02:45:53.913Z,100279.63
2023-03-16T02:46:28.408Z,100288.22
2023-03-16T02:47:05.982Z,100286.72
2023-03-16T02:47:42.597Z,100290.38
2023-03-16T02:48:23.797Z,100277.34
2023-03-16T02:49:05.839Z,100281.31
2023-03-16T02:49:44.514Z,100264.38
2023-03-16T02:50:16.230Z,100267.94
2023-03-16T02:50:53.162Z,100275.66
2023-03-16T02:51:24.954Z,100278.63
2023-03-16T02:51:57.630Z,100284.78
2023-03-16T02:52:29.379Z,100283.75
2023-03-16T02:53:01.070Z,100281.22
2023-03-16T02:53:32.944Z,100279.47
2023-03-16T02:54:04.848Z,100271.81
2023-03-16T02:54:36.845Z,100281.81
2023-03-16T02:55:09.335Z,100285.63
2023-03-16T02:55:41.495Z,100290.25
2023-03-16T02:56:13.199Z,100294.53
2023-03-16T02:56:46.117Z,100298.66
2023-03-16T02:57:17.891Z,100292.69
2023-03-16T02:57:49.679Z,100291.00
2023-03-16T02:58:21.414Z,100289.31
2023-03-16T02:58:53.414Z,100292.69
2023-03-16T02:59:25.113Z,100284.09
2023-03-16T02:59:56.793Z,100287.03
2023-03-16T03:00:29.953Z,100288.72
2023-03-16T03:01:01.908Z,100278.72
2023-03-16T03:01:35.092Z,100290.50
2023-03-16T03:02:07.652Z,100273.50
2023-03-16T03:02:40.176Z,100291.34
2023-03-16T03:03:12.111Z,100290.75
2023-03-16T03:03:43.886Z,100294.78
2023-03-16T03:04:15.637Z,100296.66
2023-03-16T03:04:48.583Z,100294.03
2023-03-16T03:05:21.340Z,100300.00
2023-03-16T03:05:53.034Z,100296.06
2023-03-16T03:06:25.362Z,100305.75
2023-03-16T03:07:04.039Z,100304.56
2023-03-16T03:07:35.859Z,100303.63
2023-03-16T03:08:08.131Z,100306.34
2023-03-16T03:08:39.915Z,100301.13
2023-03-16T03:09:11.897Z,100285.63
2023-03-16T03:09:43.675Z,100287.88
2023-03-16T03:10:15.619Z,100288.63
2023-03-16T03:10:47.357Z,100291.16
2023-03-16T03:11:21.887Z,100296.38
2023-03-16T03:11:53.547Z,100292.25
2023-03-16T03:12:25.351Z,100287.31
2023-03-16T03:12:57.668Z,100295.03
2023-03-16T03:13:29.339Z,100291.84
2023-03-16T03:14:01.474Z,100298.75
2023-03-16T03:14:33.603Z,100303.91
2023-03-16T03:15:05.904Z,100304.56
2023-03-16T03:15:37.760Z,100304.72
2023-03-16T03:16:09.552Z,100305.75
2023-03-16T03:16:41.290Z,100309.88
2023-03-16T03:17:14.592Z,100296.22
2023-03-16T03:17:47.406Z,100291.09
2023-03-16T03:18:31.122Z,100298.09
2023-03-16T03:19:21.107Z,100297.34
2023-03-16T03:19:52.797Z,100312.91
2023-03-16T03:20:24.785Z,100309.38
2023-03-16T03:20:56.538Z,100311.97
2023-03-16T03:21:28.645Z,100310.69
2023-03-16T03:22:06.459Z,100314.97
2023-03-16T03:22:38.219Z,100326.19
2023-03-16T03:23:09.920Z,100310.00
2023-03-16T03:23:41.643Z,100322.06
2023-03-16T03:24:13.439Z,100328.28
2023-03-16T03:24:45.340Z,100322.31
2023-03-16T03:25:18.611Z,100313.81
2023-03-16T03:25:50.397Z,100328.03
2023-03-16T03:26:22.122Z,100328.97
2023-03-16T03:26:53.932Z,100331.66
2023-03-16T03:27:25.705Z,100330.22
2023-03-16T03:27:57.467Z,100321.72
2023-03-16T03:28:29.320Z,100320.09
2023-03-16T03:29:01.044Z,100334.59
2023-03-16T03:29:36.238Z,100317.94
2023-03-16T03:30:13.263Z,100318.59
2023-03-16T03:30:45.246Z,100321.81
2023-03-16T03:31:19.733Z,100322.56
2023-03-16T03:31:51.520Z,100329.72
2023-03-16T03:32:23.348Z,100335.94
2023-03-16T03:32:55.406Z,100336.78
2023-03-16T03:33:28.242Z,100330.13
2023-03-16T03:33:59.954Z,100332.75
2023-03-16T03:34:32.276Z,100338.91
2023-03-16T03:35:04.416Z,100339.06
2023-03-16T03:35:36.160Z,100346.06
2023-03-16T03:36:08.342Z,100351.41
2023-03-16T03:36:41.594Z,100346.34
2023-03-16T03:37:13.280Z,100349.88
2023-03-16T03:37:45.030Z,100354.19
2023-03-16T03:38:16.688Z,100342.13
2023-03-16T03:38:49.682Z,100342.13
2023-03-16T03:39:21.369Z,100327.72
2023-03-16T03:39:53.544Z,100342.97
2023-03-16T03:40:25.339Z,100340.78
2023-03-16T03:41:00.492Z,100345.16
2023-03-16T03:41:33.505Z,100350.28
2023-03-16T03:42:05.351Z,100349.44
2023-03-16T03:42:37.149Z,100348.84
2023-03-16T03:43:08.971Z,100333.34
2023-03-16T03:43:41.191Z,100345.16
2023-03-16T03:44:12.882Z,100347.53
2023-03-16T03:44:44.655Z,100346.75
2023-03-16T03:45:16.842Z,100347.00
2023-03-16T03:45:48.685Z,100358.81
2023-03-16T03:46:20.833Z,100347.69
2023-03-16T03:46:52.686Z,100350.97
2023-03-16T03:47:24.456Z,100336.03
2023-03-16T03:47:56.620Z,100350.66
2023-03-16T03:48:29.086Z,100360.97
2023-03-16T03:49:03.930Z,100360.97
2023-03-16T03:49:35.597Z,100353.28
2023-03-16T03:50:09.068Z,100354.06
2023-03-16T03:50:40.924Z,100350.53
2023-03-16T03:51:12.648Z,100346.38
2023-03-16T03:51:44.661Z,100341.41
2023-03-16T03:52:16.333Z,100356.06
2023-03-16T03:52:48.414Z,100346.03
2023-03-16T03:53:20.428Z,100365.72
2023-03-16T03:53:52.115Z,100366.56
2023-03-16T03:54:23.801Z,100363.13
2023-03-16T03:54:55.714Z,100353.94
2023-03-16T03:55:27.400Z,100356.28
2023-03-16T03:55:59.124Z,100353.78
2023-03-16T03:56:31.171Z,100346.41
2023-03-16T03:57:03.289Z,100357.63
2023-03-16T03:57:35.538Z,100358.38
2023-03-16T03:58:07.467Z,100360.91
2023-03-16T03:58:39.213Z,100360.00
2023-03-16T03:59:10.968Z,100351.69
2023-03-16T03:59:43.905Z,100345.72
2023-03-16T04:00:16.019Z,100353.25
2023-03-16T04:00:47.693Z,100350.63
2023-03-16T04:01:19.378Z,100361.75
2023-03-16T04:01:53.849Z,100352.44
2023-03-16T04:02:25.602Z,100354.94
2023-03-16T04:02:57.382Z,100354.22
2023-03-16T04:03:29.274Z,100364.66
2023-03-16T04:04:01.023Z,100359.50
2023-03-16T04:04:32.714Z,100355.31
2023-03-16T04:05:06.087Z,100364.66
2023-03-16T04:05:37.786Z,100365.50
2023-03-16T04:06:09.655Z,100363.81
2023-03-16T04:06:41.823Z,100357.91
2023-03-16T04:07:13.484Z,100350.84
2023-03-16T04:07:45.146Z,100359.50
2023-03-16T04:08:16.826Z,100364.88
2023-03-16T04:08:48.748Z,100363.03
2023-03-16T04:09:20.404Z,100367.25
2023-03-16T04:09:52.121Z,100349.31
2023-03-16T04:10:30.171Z,100364.03
2023-03-16T04:11:02.107Z,100359.84
2023-03-16T04:11:34.230Z,100363.38
2023-03-16T04:12:06.843Z,100359.22
2023-03-16T04:12:38.715Z,100369.41
2023-03-16T04:13:10.749Z,100371.28
2023-03-16T04:13:42.412Z,100371.28
2023-03-16T04:14:14.100Z,100373.94
2023-03-16T04:14:45.820Z,100367.91
2023-03-16T04:15:17.601Z,100373.72
2023-03-16T04:15:49.523Z,100378.00
2023-03-16T04:16:21.372Z,100375.56
2023-03-16T04:16:54.799Z,100372.94
2023-03-16T04:17:26.853Z,100377.47
2023-03-16T04:17:59.429Z,100368.19
2023-03-16T04:18:38.836Z,100377.75
2023-03-16T04:19:11.567Z,100377.75
2023-03-16T04:19:43.603Z,100379.31
2023-03-16T04:20:19.416Z,100371.72
2023-03-16T04:20:53.316Z,100374.19
2023-03-16T04:21:25.003Z,100378.47
2023-03-16T04:21:56.689Z,100375.03
2023-03-16T04:22:30.364Z,100378.25
2023-03-16T04:23:02.165Z,100379.16
2023-03-16T04:23:34.894Z,100374.94
2023-03-16T04:24:06.732Z,100380.16
2023-03-16T04:24:38.458Z,100381.16
2023-03-16T04:25:11.604Z,100378.59
2023-03-16T04:25:45.387Z,100380.44
2023-03-16T04:26:17.982Z,100375.41
2023-03-16T04:26:49.773Z,100377.84
2023-03-16T04:27:21.452Z,100379.53
2023-03-16T04:27:53.375Z,100388.28
2023-03-16T04:28:26.883Z,100372.94
2023-03-16T04:28:58.970Z,100385.22
2023-03-16T04:29:30.719Z,100383.13
2023-03-16T04:30:06.767Z,100382.13
2023-03-16T04:30:38.577Z,100380.53
2023-03-16T04:31:11.195Z,100390.03
2023-03-16T04:31:43.780Z,100386.44
2023-03-16T04:32:15.470Z,100397.78
2023-03-16T04:32:47.280Z,100380.91
2023-03-16T04:33:18.967Z,100387.66
2023-03-16T04:33:54.692Z,100396.94
2023-03-16T04:34:26.646Z,100397.94
2023-03-16T04:34:58.352Z,100392.88
2023-03-16T04:35:30.538Z,100390.03
2023-03-16T04:36:03.519Z,100381.53
2023-03-16T04:36:35.530Z,100388.44
2023-03-16T04:37:07.275Z,100378.31
2023-03-16T04:37:38.956Z,100391.19
2023-03-16T04:38:12.212Z,100387.81
2023-03-16T04:38:43.898Z,100386.75
2023-03-16T04:39:15.604Z,100392.56
2023-03-16T04:39:47.290Z,100376.56
2023-03-16T04:40:19.532Z,100403.91
2023-03-16T04:40:51.396Z,100391.13
2023-03-16T04:41:23.418Z,100395.34
2023-03-16T04:41:55.522Z,100397.94
2023-03-16T04:42:27.208Z,100400.63
2023-03-16T04:42:58.901Z,100393.81
2023-03-16T04:43:34.538Z,100401.47
2023-03-16T04:44:06.252Z,100404.84
2023-03-16T04:44:44.411Z,100410.06
2023-03-16T04:45:20.161Z,100403.31
2023-03-16T04:45:51.972Z,100413.44
2023-03-16T04:46:24.915Z,100408.53
2023-03-16T04:46:56.654Z,100401.47
2023-03-16T04:47:28.342Z,100410.06
2023-03-16T04:48:00.200Z,100410.06
2023-03-16T04:48:32.529Z,100410.13
2023-03-16T04:49:04.178Z,100400.63
2023-03-16T04:49:35.992Z,100404.00
2023-03-16T04:50:08.849Z,100406.84
2023-03-16T04:50:41.016Z,100410.22
2023-03-16T04:51:12.774Z,100400.63
2023-03-16T04:51:45.838Z,100398.69
2023-03-16T04:52:17.524Z,100406.53
2023-03-16T04:52:49.173Z,100413.44
2023-03-16T04:53:20.949Z,100410.69
2023-03-16T04:53:52.972Z,100404.75
2023-03-16T04:54:24.665Z,100413.66
2023-03-16T04:54:56.653Z,100412.06
2023-03-16T04:55:28.597Z,100415.50
2023-03-16T04:56:00.858Z,100415.72
2023-03-16T04:56:32.576Z,100422.41
2023-03-16T04:57:05.894Z,100428.38
2023-03-16T04:57:37.646Z,100420.47
2023-03-16T04:58:09.448Z,100417.78
2023-03-16T04:58:41.658Z,100419.56
2023-03-16T04:59:13.363Z,100425.53
2023-03-16T04:59:45.445Z,100408.38
2023-03-16T05:00:20.701Z,100408.38
2023-03-16T05:00:53.724Z,100411.81
2023-03-16T05:01:25.515Z,100406.84
2023-03-16T05:01:57.338Z,100416.03
2023-03-16T05:02:29.084Z,100417.44
2023-03-16T05:03:00.751Z,100422.09
2023-03-16T05:03:32.587Z,100415.44
2023-03-16T05:04:04.301Z,100416.97
2023-03-16T05:04:36.046Z,100423.44
2023-03-16T05:05:08.182Z,100430.34
2023-03-16T05:05:40.599Z,100428.66
2023-03-16T05:06:12.818Z,100429.41
2023-03-16T05:06:44.620Z,100431.63
2023-03-16T05:07:16.483Z,100434.16
2023-03-16T05:07:48.598Z,100436.00
2023-03-16T05:08:20.338Z,100439.44
2023-03-16T05:08:52.029Z,100432.03
2023-03-16T05:09:23.672Z,100437.25
2023-03-16T05:09:55.384Z,100443.22
2023-03-16T05:10:27.439Z,100439.16
2023-03-16T05:10:59.852Z,100442.78
2023-03-16T05:11:32.009Z,100431.69
2023-03-16T05:12:03.850Z,100438.75
2023-03-16T05:12:35.523Z,100439.41
2023-03-16T05:13:07.230Z,100439.44
2023-03-16T05:13:38.973Z,100431.63
2023-03-16T05:14:10.859Z,100438.53
2023-03-16T05:14:42.750Z,100444.06
2023-03-16T05:15:15.097Z,100440.75
2023-03-16T05:15:46.817Z,100444.81
2023-03-16T05:16:18.687Z,100452.56
2023-03-16T05:16:52.304Z,100451.88
2023-03-16T05:17:23.994Z,100455.03
2023-03-16T05:17:56.177Z,100457.66
2023-03-16T05:18:27.855Z,100443.91
2023-03-16T05:19:00.727Z,100454.16
2023-03-16T05:19:32.399Z,100455.94
2023-03-16T05:20:08.980Z,100451.72
2023-03-16T05:20:41.347Z,100459.63
2023-03-16T05:21:13.025Z,100447.72
2023-03-16T05:21:45.784Z,100452.78
2023-03-16T05:22:17.501Z,100450.34
2023-03-16T05:22:49.689Z,100461.47
2023-03-16T05:23:22.804Z,100450.03
2023-03-16T05:23:54.513Z,100444.97
2023-03-16T05:24:26.389Z,100453.03
2023-03-16T05:24:58.101Z,100458.94
2023-03-16T05:25:29.904Z,100445.22
2023-03-16T05:26:02.049Z,100447.44
2023-03-16T05:26:33.997Z,100447.06
2023-03-16T05:27:05.754Z,100449.22
2023-03-16T05:27:37.471Z,100459.50
2023-03-16T05:28:09.262Z,100460.03
2023-03-16T05:28:42.639Z,100454.09
2023-03-16T05:29:14.358Z,100452.72
2023-03-16T05:29:46.225Z,100464.41
2023-03-16T05:30:19.475Z,100468.94
2023-03-16T05:30:51.820Z,100451.22
2023-03-16T05:31:26.159Z,100454.91
2023-03-16T05:31:59.663Z,100474.63
2023-03-16T05:32:31.356Z,100464.69
2023-03-16T05:33:03.197Z,100461.88
2023-03-16T05:33:35.489Z,100459.41
2023-03-16T05:34:07.302Z,100463.78
2023-03-16T05:34:39.017Z,100473.38
2023-03-16T05:35:13.659Z,100459.56
2023-03-16T05:35:45.420Z,100471.75
2023-03-16T05:36:17.672Z,100465.84
2023-03-16T05:36:49.734Z,100470.22
2023-03-16T05:37:21.521Z,100477.97
2023-03-16T05:37:53.328Z,100483.13
2023-03-16T05:38:27.465Z,100473.00
2023-03-16T05:38:59.463Z,100475.38
2023-03-16T05:39:31.273Z,100466.63
2023-03-16T05:40:12.000Z,100470.91
2023-03-16T05:40:44.034Z,100476.06
2023-03-16T05:41:18.289Z,100474.53
2023-03-16T05:41:50.254Z,100483.88
2023-03-16T05:42:21.930Z,100471.06
2023-03-16T05:42:57.801Z,100468.53
2023-03-16T05:43:29.489Z,100479.59
2023-03-16T05:44:01.234Z,100473.59
2023-03-16T05:44:33.616Z,100487.41
2023-03-16T05:45:06.440Z,100473.00
2023-03-16T05:45:38.118Z,100481.44
2023-03-16T05:46:09.819Z,100484.72
2023-03-16T05:46:41.510Z,100475.13
2023-03-16T05:47:13.757Z,100471.91
2023-03-16T05:47:45.477Z,100480.34
2023-03-16T05:48:17.210Z,100483.81
2023-03-16T05:48:48.927Z,100486.41
2023-03-16T05:49:20.581Z,100482.88
2023-03-16T05:49:52.311Z,100479.59
2023-03-16T05:50:24.230Z,100481.44
2023-03-16T05:50:55.986Z,100490.03
2023-03-16T05:51:27.751Z,100483.59
2023-03-16T05:51:59.483Z,100487.88
2023-03-16T05:52:31.500Z,100469.38
2023-03-16T05:53:04.406Z,100494.56
2023-03-16T05:53:36.106Z,100482.34
2023-03-16T05:54:08.265Z,100480.50
2023-03-16T05:54:39.962Z,100493.41
2023-03-16T05:55:14.633Z,100487.66
2023-03-16T05:55:52.625Z,100485.13
2023-03-16T05:56:26.309Z,100494.56
2023-03-16T05:56:57.998Z,100484.97
2023-03-16T05:57:29.691Z,100498.47
2023-03-16T05:58:02.557Z,100498.47
2023-03-16T05:58:35.472Z,100507.22
2023-03-16T05:59:07.209Z,100506.94
2023-03-16T05:59:38.950Z,100506.94
2023-03-16T06:00:14.652Z,100510.38
2023-03-16T06:00:46.391Z,100505.25
2023-03-16T06:01:18.083Z,100512.16
2023-03-16T06:01:50.324Z,100506.25
2023-03-16T06:02:22.120Z,100512.31
2023-03-16T06:02:54.025Z,100515.00
2023-03-16T06:03:26.088Z,100518.28
2023-03-16T06:03:57.862Z,100508.22
2023-03-16T06:04:29.722Z,100516.53
2023-03-16T06:05:02.009Z,100507.88
2023-03-16T06:05:33.963Z,100510.25
2023-03-16T06:06:07.539Z,100517.16
2023-03-16T06:06:39.312Z,100510.94
2023-03-16T06:07:11.259Z,100508.63
2023-03-16T06:07:43.008Z,100507.22
2023-03-16T06:08:15.456Z,100509.53
2023-03-16T06:08:47.544Z,100520.91
2023-03-16T06:09:27.222Z,100517.50
2023-03-16T06:09:58.884Z,100524.81
2023-03-16T06:10:30.834Z,100526.88
2023-03-16T06:11:04.173Z,100524.78
2023-03-16T06:11:35.966Z,100526.00
2023-03-16T06:12:07.879Z,100533.50
2023-03-16T06:12:44.020Z,100526.66
2023-03-16T06:13:15.786Z,100530.16
2023-03-16T06:13:49.251Z,100526.91
2023-03-16T06:14:21.512Z,100525.50
2023-03-16T06:14:53.194Z,100532.13
2023-03-16T06:15:26.580Z,100535.53
2023-03-16T06:15:58.269Z,100532.22
2023-03-16T06:16:30.295Z,100542.06
2023-03-16T06:17:02.049Z,100536.09
2023-03-16T06:17:34.912Z,100529.41
2023-03-16T06:18:06.958Z,100506.63
2023-03-16T06:18:39.772Z,100531.66
2023-03-16T06:19:11.545Z,100532.72
2023-03-16T06:19:43.325Z,100531.50
2023-03-16T06:20:15.228Z,100533.31